createdAt,value
2018-10-03T00:00:36.317Z,97975.77
2018-10-03T00:03:03.789Z,97975.56
2018-10-03T00:05:31.226Z,97974.07
2018-10-03T00:07:58.625Z,97976.56
2018-10-03T00:10:26.075Z,97982.80
2018-10-03T00:12:53.480Z,97983.02
2018-10-03T00:15:20.989Z,97985.23
2018-10-03T00:17:48.758Z,97990.23
2018-10-03T00:20:16.205Z,97983.40
2018-10-03T00:22:43.606Z,97991.66
2018-10-03T00:25:11.514Z,97990.76
2018-10-03T00:27:38.927Z,97990.51
2018-10-03T00:30:06.356Z,97986.25
2018-10-03T00:32:33.795Z,97991.59
2018-10-03T00:35:01.201Z,97989.03
2018-10-03T00:37:28.717Z,97993.62
2018-10-03T00:39:56.205Z,97990.66
2018-10-03T00:42:23.672Z,97991.66
2018-10-03T00:44:51.403Z,97992.34
2018-10-03T00:47:18.841Z,97985.12
2018-10-03T00:49:46.262Z,97988.81
2018-10-03T00:52:13.652Z,97994.89
2018-10-03T00:54:41.132Z,97989.27
2018-10-03T00:57:08.999Z,97991.56
2018-10-03T00:59:36.405Z,97990.38
2018-10-03T01:02:03.863Z,97992.89
2018-10-03T01:04:31.288Z,97989.37
2018-10-03T01:06:58.729Z,97990.47
2018-10-03T01:09:26.179Z,97988.44
2018-10-03T01:11:53.609Z,97999.55
2018-10-03T01:14:21.161Z,97990.13
2018-10-03T01:16:48.653Z,97988.59
2018-10-03T01:19:16.123Z,97991.52
2018-10-03T01:21:43.576Z,97986.56
2018-10-03T01:24:11.066Z,97989.86
2018-10-03T01:26:38.533Z,97984.95
2018-10-03T01:29:06.025Z,97979.70
2018-10-03T01:31:33.426Z,97986.39
2018-10-03T01:34:00.877Z,97980.02
2018-10-03T01:36:28.324Z,97979.72
2018-10-03T01:38:55.760Z,97982.05
2018-10-03T01:41:24.097Z,97986.11
2018-10-03T01:43:51.549Z,97986.66
2018-10-03T01:46:18.965Z,97982.34
2018-10-03T01:48:46.447Z,97984.33
2018-10-03T01:51:13.930Z,97981.65
2018-10-03T01:53:41.358Z,97983.23
2018-10-03T01:56:08.809Z,97981.70
2018-10-03T01:58:36.236Z,97984.67
2018-10-03T02:01:03.663Z,97984.75
2018-10-03T02:03:31.103Z,97993.64
2018-10-03T02:05:58.500Z,97984.09
2018-10-03T02:08:25.958Z,97987.31
2018-10-03T02:10:53.581Z,97983.80
2018-10-03T02:13:21.056Z,97990.84
2018-10-03T02:15:48.511Z,97984.27
2018-10-03T02:18:15.923Z,97985.94
2018-10-03T02:20:43.537Z,97989.89
2018-10-03T02:23:10.980Z,97990.78
2018-10-03T02:25:38.540Z,97994.58
2018-10-03T02:28:06.021Z,97995.20
2018-10-03T02:30:33.488Z,97996.98
2018-10-03T02:33:00.924Z,97996.86
2018-10-03T02:35:28.459Z,98000.27
2018-10-03T02:37:55.945Z,97999.07
2018-10-03T02:40:23.463Z,98003.37
2018-10-03T02:42:50.929Z,98001.33
2018-10-03T02:45:18.449Z,98004.37
2018-10-03T02:47:46.008Z,98001.39
2018-10-03T02:50:13.497Z,97998.34
2018-10-03T02:52:41.065Z,97995.30
2018-10-03T02:55:08.544Z,97990.20
2018-10-03T02:57:36.031Z,97992.99
2018-10-03T03:00:03.432Z,97986.92
2018-10-03T03:02:30.850Z,97993.36
2018-10-03T03:04:58.288Z,97999.02
2018-10-03T03:07:25.757Z,98012.60
2018-10-03T03:09:53.256Z,98009.51
2018-10-03T03:12:20.731Z,98015.72
2018-10-03T03:14:48.210Z,98009.44
2018-10-03T03:17:15.679Z,98007.35
2018-10-03T03:19:43.079Z,98005.88
2018-10-03T03:22:10.530Z,98011.22
2018-10-03T03:24:38.536Z,98014.63
2018-10-03T03:27:05.937Z,98014.39
2018-10-03T03:29:33.416Z,98019.03
2018-10-03T03:32:00.868Z,98018.47
2018-10-03T03:34:29.257Z,98021.16
2018-10-03T03:36:56.764Z,98011.08
2018-10-03T03:39:24.244Z,98014.76
2018-10-03T03:41:51.650Z,98022.11
2018-10-03T03:44:19.997Z,98013.59
2018-10-03T03:46:47.480Z,98021.51
2018-10-03T03:49:15.022Z,98019.64
2018-10-03T03:51:42.518Z,98022.75
2018-10-03T03:54:09.961Z,98024.23
2018-10-03T03:56:37.490Z,98023.14
2018-10-03T03:59:05.010Z,98021.34
2018-10-03T04:01:32.440Z,98026.38
2018-10-03T04:03:59.859Z,98022.98
2018-10-03T04:06:27.332Z,98025.84
2018-10-03T04:08:54.812Z,98022.61
2018-10-03T04:11:22.280Z,98030.81
2018-10-03T04:13:49.831Z,98025.61
2018-10-03T04:16:17.968Z,98027.95
2018-10-03T04:18:45.423Z,98035.59
2018-10-03T04:21:12.877Z,98036.28
2018-10-03T04:23:40.438Z,98032.23
2018-10-03T04:26:07.899Z,98029.27
2018-10-03T04:28:35.299Z,98032.48
2018-10-03T04:31:02.700Z,98033.52
2018-10-03T04:33:30.143Z,98030.48
2018-10-03T04:35:57.652Z,98033.70
2018-10-03T04:38:25.084Z,98034.34
2018-10-03T04:40:52.562Z,98036.83
2018-10-03T04:43:20.003Z,98050.97
2018-10-03T04:45:47.505Z,98052.73
2018-10-03T04:48:14.931Z,98051.70
2018-10-03T04:50:42.342Z,98054.05
2018-10-03T04:53:10.075Z,98056.45
2018-10-03T04:55:37.567Z,98056.72
2018-10-03T04:58:05.037Z,98056.36
2018-10-03T05:00:32.507Z,98052.31
2018-10-03T05:02:59.910Z,98060.54
2018-10-03T05:05:27.360Z,98053.98
2018-10-03T05:07:54.762Z,98056.63
2018-10-03T05:10:22.287Z,98059.08
2018-10-03T05:12:50.090Z,98059.23
2018-10-03T05:15:17.535Z,98065.12
2018-10-03T05:17:45.040Z,98070.30
2018-10-03T05:20:12.571Z,98067.58
2018-10-03T05:22:40.034Z,98076.69
2018-10-03T05:25:07.505Z,98070.66
2018-10-03T05:27:34.965Z,98072.39
2018-10-03T05:30:02.414Z,98085.40
2018-10-03T05:32:29.883Z,98076.17
2018-10-03T05:34:57.348Z,98072.08
2018-10-03T05:37:24.831Z,98079.64
2018-10-03T05:39:52.529Z,98078.64
2018-10-03T05:42:19.992Z,98080.61
2018-10-03T05:44:47.545Z,98084.03
2018-10-03T05:47:15.039Z,98088.75
2018-10-03T05:49:42.487Z,98091.00
2018-10-03T05:52:09.936Z,98095.19
2018-10-03T05:54:38.801Z,98094.86
2018-10-03T05:57:06.249Z,98093.96
2018-10-03T05:59:33.919Z,98097.73
2018-10-03T06:02:01.535Z,98093.55
2018-10-03T06:04:29.063Z,98093.39
2018-10-03T06:06:56.608Z,98096.63
2018-10-03T06:09:24.186Z,98099.77
2018-10-03T06:11:51.608Z,98091.10
2018-10-03T06:14:19.236Z,98096.45
2018-10-03T06:16:46.727Z,98099.56
2018-10-03T06:19:14.149Z,98105.13
2018-10-03T06:21:41.628Z,98107.67
2018-10-03T06:24:09.178Z,98103.61
2018-10-03T06:26:36.774Z,98108.95
2018-10-03T06:29:04.244Z,98109.40
2018-10-03T06:31:31.796Z,98100.00
2018-10-03T06:33:59.370Z,98096.58
2018-10-03T06:36:26.837Z,98091.56
2018-10-03T06:38:54.307Z,98087.87
2018-10-03T06:41:22.549Z,98094.77
2018-10-03T06:43:50.029Z,98097.19
2018-10-03T06:46:17.455Z,98090.70
2018-10-03T06:48:44.952Z,98093.89
2018-10-03T06:51:12.480Z,98095.03
2018-10-03T06:53:39.932Z,98102.26
2018-10-03T06:56:07.588Z,98104.70
2018-10-03T06:58:35.045Z,98100.38
2018-10-03T07:01:02.899Z,98106.64
2018-10-03T07:03:30.622Z,98109.71
2018-10-03T07:05:58.127Z,98100.94
2018-10-03T07:08:25.705Z,98105.34
2018-10-03T07:10:53.258Z,98094.58
2018-10-03T07:13:20.819Z,98092.80
2018-10-03T07:15:48.219Z,98091.75
2018-10-03T07:18:15.244Z,98094.02
2018-10-03T07:20:42.404Z,98094.77
2018-10-03T07:23:09.582Z,98093.44
2018-10-03T07:25:36.555Z,98098.58
2018-10-03T07:28:03.970Z,98099.62
2018-10-03T07:30:31.781Z,98099.87
2018-10-03T07:32:59.296Z,98114.16
2018-10-03T07:35:26.307Z,98105.95
2018-10-03T07:37:53.769Z,98108.92
2018-10-03T07:40:20.792Z,98104.40
2018-10-03T07:42:47.805Z,98117.02
2018-10-03T07:45:16.147Z,98116.07
2018-10-03T07:47:43.622Z,98115.61
2018-10-03T07:50:11.113Z,98108.86
2018-10-03T07:52:38.622Z,98101.94
2018-10-03T07:55:06.143Z,98104.84
2018-10-03T07:57:33.618Z,98105.55
2018-10-03T08:00:00.647Z,98100.00
2018-10-03T08:02:27.696Z,98103.22
2018-10-03T08:04:55.649Z,98100.03
2018-10-03T08:07:22.653Z,98090.66
2018-10-03T08:09:49.766Z,98089.34
2018-10-03T08:12:17.759Z,98088.77
2018-10-03T08:14:44.905Z,98093.03
2018-10-03T08:17:11.967Z,98093.20
2018-10-03T08:19:38.942Z,98087.36
2018-10-03T08:22:06.007Z,98092.81
2018-10-03T08:24:33.133Z,98095.75
2018-10-03T08:27:00.078Z,98101.41
2018-10-03T08:29:27.083Z,98099.07
2018-10-03T08:31:54.092Z,98093.06
2018-10-03T08:37:02.006Z,98089.69
2018-10-03T08:39:28.997Z,98089.91
2018-10-03T08:41:56.077Z,98095.37
2018-10-03T08:44:23.602Z,98091.32
2018-10-03T08:46:50.754Z,98096.89
2018-10-03T08:49:17.732Z,98084.02
2018-10-03T08:51:44.855Z,98086.17
2018-10-03T08:54:11.825Z,98085.98
2018-10-03T08:56:38.764Z,98081.76
2018-10-03T08:59:05.848Z,98081.17
2018-10-03T09:01:32.897Z,98087.47
2018-10-03T09:04:00.107Z,98079.83
2018-10-03T09:09:12.062Z,98080.95
2018-10-03T09:11:39.129Z,98079.21
2018-10-03T09:14:06.518Z,98080.48
2018-10-03T09:16:33.677Z,98080.13
2018-10-03T09:19:00.808Z,98078.72
2018-10-03T09:21:28.260Z,98084.73
2018-10-03T09:23:55.655Z,98078.14
2018-10-03T09:26:23.345Z,98083.36
2018-10-03T09:28:50.812Z,98080.56
2018-10-03T09:31:18.795Z,98087.56
2018-10-03T09:33:46.238Z,98086.05
2018-10-03T09:36:13.796Z,98090.34
2018-10-03T09:41:21.419Z,98089.34
2018-10-03T09:43:48.886Z,98094.34
2018-10-03T09:46:16.306Z,98083.11
2018-10-03T09:48:43.416Z,98085.41
2018-10-03T09:51:10.383Z,98081.73
2018-10-03T09:53:37.571Z,98078.64
2018-10-03T09:56:04.688Z,98077.07
2018-10-03T09:58:32.184Z,98064.52
2018-10-03T10:00:59.959Z,98069.11
2018-10-03T10:03:27.401Z,98067.91
2018-10-03T10:05:54.818Z,98067.59
2018-10-03T10:08:22.996Z,98066.94
2018-10-03T10:10:50.198Z,98060.64
2018-10-03T10:13:17.789Z,98059.98
2018-10-03T10:15:46.265Z,98060.70
2018-10-03T10:18:13.920Z,98058.99
2018-10-03T10:20:42.241Z,98057.25
2018-10-03T10:23:09.328Z,98054.18
2018-10-03T10:25:36.423Z,98056.22
2018-10-03T10:28:03.370Z,98049.40
2018-10-03T10:30:30.974Z,98049.51
2018-10-03T10:32:58.691Z,98045.48
2018-10-03T10:35:25.699Z,98042.02
2018-10-03T10:37:52.788Z,98031.55
2018-10-03T10:40:19.862Z,98035.88
2018-10-03T10:42:47.046Z,98032.76
2018-10-03T10:45:14.372Z,98035.84
2018-10-03T10:47:41.430Z,98031.67
2018-10-03T10:50:08.444Z,98030.54
2018-10-03T10:52:35.450Z,98035.48
2018-10-03T10:55:02.866Z,98029.27
2018-10-03T10:57:29.954Z,98026.23
2018-10-03T10:59:56.967Z,98024.06
2018-10-03T11:02:24.522Z,98028.69
2018-10-03T11:04:52.865Z,98020.25
2018-10-03T11:07:20.324Z,98024.53
2018-10-03T11:09:47.454Z,98021.91
2018-10-03T11:12:14.951Z,98016.94
2018-10-03T11:14:42.025Z,98013.14
2018-10-03T11:17:09.307Z,98013.25
2018-10-03T11:19:36.423Z,98006.09
2018-10-03T11:22:03.955Z,98008.36
2018-10-03T11:24:31.623Z,98001.70
2018-10-03T11:26:58.647Z,97997.73
2018-10-03T11:29:26.116Z,97984.35
2018-10-03T11:31:53.287Z,97984.03
2018-10-03T11:34:21.262Z,97983.86
2018-10-03T11:36:48.384Z,97979.58
2018-10-03T11:39:15.864Z,97978.78
2018-10-03T11:41:42.897Z,97979.13
2018-10-03T11:44:10.167Z,97973.72
2018-10-03T11:46:37.180Z,97971.05
2018-10-03T11:49:04.228Z,97970.47
2018-10-03T11:51:31.289Z,97977.61
2018-10-03T11:53:58.335Z,97963.75
2018-10-03T11:56:26.182Z,97963.60
2018-10-03T11:58:53.237Z,97952.55
2018-10-03T12:01:20.531Z,97948.53
2018-10-03T12:03:47.863Z,97942.92
2018-10-03T12:06:14.839Z,97940.58
2018-10-03T12:08:41.955Z,97932.53
2018-10-03T12:11:09.036Z,97935.20
2018-10-03T12:13:36.186Z,97929.69
2018-10-03T12:16:03.195Z,97926.48
2018-10-03T12:18:30.214Z,97923.68
2018-10-03T12:20:57.642Z,97923.51
2018-10-03T12:23:24.821Z,97922.22
2018-10-03T12:25:51.753Z,97906.79
2018-10-03T12:28:18.812Z,97904.19
2018-10-03T12:30:45.872Z,97915.50
2018-10-03T12:33:13.100Z,97908.42
2018-10-03T12:35:40.136Z,97902.79
2018-10-03T12:38:07.120Z,97896.58
2018-10-03T12:40:34.114Z,97890.94
2018-10-03T12:43:01.132Z,97892.98
2018-10-03T12:45:28.213Z,97881.49
2018-10-03T12:47:56.027Z,97883.41
2018-10-03T12:50:23.169Z,97884.80
2018-10-03T12:52:50.199Z,97888.42
2018-10-03T12:55:17.227Z,97884.50
2018-10-03T12:57:44.315Z,97880.53
2018-10-03T13:00:11.423Z,97884.11
2018-10-03T13:02:38.463Z,97875.13
2018-10-03T13:05:05.451Z,97876.11
2018-10-03T13:07:32.429Z,97878.16
2018-10-03T13:09:59.418Z,97871.39
2018-10-03T13:12:26.439Z,97875.36
2018-10-03T13:14:53.939Z,97869.05
2018-10-03T13:17:20.919Z,97863.41
2018-10-03T13:19:48.319Z,97860.23
2018-10-03T13:22:15.808Z,97866.98
2018-10-03T13:24:42.867Z,97856.98
2018-10-03T13:27:10.348Z,97853.78
2018-10-03T13:29:37.826Z,97855.28
2018-10-03T13:32:05.345Z,97855.34
2018-10-03T13:34:32.815Z,97840.72
2018-10-03T13:37:00.236Z,97844.91
2018-10-03T13:39:27.745Z,97841.90
2018-10-03T13:41:55.164Z,97843.93
2018-10-03T13:44:22.662Z,97843.45
2018-10-03T13:46:50.297Z,97837.21
2018-10-03T13:49:17.756Z,97837.61
2018-10-03T13:51:45.218Z,97839.13
2018-10-03T13:54:12.738Z,97829.56
2018-10-03T13:56:40.462Z,97831.42
2018-10-03T13:59:07.955Z,97829.17
2018-10-03T14:01:35.428Z,97828.61
2018-10-03T14:04:02.918Z,97830.91
2018-10-03T14:06:30.576Z,97828.84
2018-10-03T14:08:58.054Z,97831.28
2018-10-03T14:11:25.546Z,97832.55
2018-10-03T14:13:53.870Z,97828.94
2018-10-03T14:16:21.555Z,97830.98
2018-10-03T14:18:48.985Z,97822.15
2018-10-03T14:21:16.496Z,97822.71
2018-10-03T14:23:43.974Z,97824.93
2018-10-03T14:26:11.611Z,97817.59
2018-10-03T14:28:39.864Z,97822.22
2018-10-03T14:31:07.281Z,97809.08
2018-10-03T14:33:34.709Z,97812.33
2018-10-03T14:36:02.213Z,97815.16
2018-10-03T14:38:29.690Z,97813.45
2018-10-03T14:40:57.347Z,97813.92
2018-10-03T14:43:24.807Z,97820.85
2018-10-03T14:45:52.611Z,97815.53
2018-10-03T14:48:20.428Z,97816.17
2018-10-03T14:50:47.994Z,97812.67
2018-10-03T14:53:15.440Z,97806.86
2018-10-03T14:55:43.279Z,97812.84
2018-10-03T14:58:10.726Z,97811.49
2018-10-03T15:00:38.193Z,97812.19
2018-10-03T15:03:05.692Z,97815.63
2018-10-03T15:05:33.950Z,97811.57
2018-10-03T15:08:01.403Z,97813.84
2018-10-03T15:10:28.865Z,97810.84
2018-10-03T15:12:56.684Z,97819.39
2018-10-03T15:15:24.080Z,97815.52
2018-10-03T15:17:51.647Z,97810.31
2018-10-03T15:20:19.069Z,97808.14
2018-10-03T15:22:46.527Z,97806.47
2018-10-03T15:25:14.038Z,97806.69
2018-10-03T15:27:41.492Z,97809.28
2018-10-03T15:30:09.007Z,97815.80
2018-10-03T15:32:37.348Z,97814.13
2018-10-03T15:35:04.782Z,97817.02
2018-10-03T15:37:32.340Z,97817.27
2018-10-03T15:39:59.822Z,97817.02
2018-10-03T15:42:27.312Z,97817.43
2018-10-03T15:44:54.841Z,97823.14
2018-10-03T15:47:22.359Z,97819.42
2018-10-03T15:49:49.783Z,97816.02
2018-10-03T15:52:17.198Z,97822.41
2018-10-03T15:54:44.655Z,97820.22
2018-10-03T15:57:12.898Z,97820.72
2018-10-03T15:59:40.380Z,97820.48
2018-10-03T16:02:07.881Z,97821.66
2018-10-03T16:04:35.325Z,97820.03
2018-10-03T16:07:02.796Z,97823.77
2018-10-03T16:09:30.349Z,97819.59
2018-10-03T16:11:57.957Z,97823.80
2018-10-03T16:14:25.402Z,97820.78
2018-10-03T16:16:52.874Z,97813.50
2018-10-03T16:19:21.103Z,97818.27
2018-10-03T16:21:48.760Z,97823.77
2018-10-03T16:24:16.316Z,97817.33
2018-10-03T16:26:44.301Z,97819.20
2018-10-03T16:29:11.689Z,97821.47
2018-10-03T16:31:39.137Z,97823.52
2018-10-03T16:34:07.072Z,97828.05
2018-10-03T16:36:34.933Z,97828.66
2018-10-03T16:39:02.484Z,97831.76
2018-10-03T16:41:29.909Z,97840.28
2018-10-03T16:43:57.465Z,97830.98
2018-10-03T16:46:24.959Z,97836.17
2018-10-03T16:48:52.427Z,97833.58
2018-10-03T16:51:19.877Z,97838.22
2018-10-03T16:53:47.671Z,97841.80
2018-10-03T16:56:15.192Z,97849.19
2018-10-03T16:58:42.255Z,97849.05
2018-10-03T17:01:09.286Z,97849.78
2018-10-03T17:03:36.755Z,97851.59
2018-10-03T17:06:04.233Z,97856.30
2018-10-03T17:08:31.728Z,97856.50
2018-10-03T17:10:59.194Z,97858.83
2018-10-03T17:13:26.726Z,97866.37
2018-10-03T17:15:54.246Z,97863.62
2018-10-03T17:18:21.743Z,97866.67
2018-10-03T17:20:49.205Z,97874.27
2018-10-03T17:23:16.648Z,97875.77
2018-10-03T17:25:44.119Z,97875.19
2018-10-03T17:28:11.545Z,97876.74
2018-10-03T17:30:39.369Z,97875.69
2018-10-03T17:33:07.528Z,97875.47
2018-10-03T17:35:35.017Z,97873.83
2018-10-03T17:38:02.579Z,97877.91
2018-10-03T17:40:30.186Z,97881.84
2018-10-03T17:43:00.429Z,97879.01
2018-10-03T17:45:28.820Z,97881.14
2018-10-03T17:47:56.926Z,97882.77
2018-10-03T17:50:24.416Z,97885.03
2018-10-03T17:52:51.946Z,97883.94
2018-10-03T17:55:19.478Z,97890.33
2018-10-03T17:57:46.924Z,97886.88
2018-10-03T18:00:14.491Z,97889.42
2018-10-03T18:02:41.946Z,97893.90
2018-10-03T18:05:09.486Z,97891.09
2018-10-03T18:07:37.473Z,97895.19
2018-10-03T18:10:05.043Z,97900.05
2018-10-03T18:12:33.213Z,97902.41
2018-10-03T18:15:00.657Z,97904.00
2018-10-03T18:17:28.092Z,97908.29
2018-10-03T18:19:56.841Z,97903.77
2018-10-03T18:22:25.369Z,97907.30
2018-10-03T18:24:52.920Z,97903.77
2018-10-03T18:27:20.768Z,97909.80
2018-10-03T18:29:48.243Z,97915.67
2018-10-03T18:32:15.977Z,97911.50
2018-10-03T18:34:43.426Z,97915.33
2018-10-03T18:37:10.916Z,97912.93
2018-10-03T18:39:38.344Z,97916.12
2018-10-03T18:42:05.804Z,97911.19
2018-10-03T18:44:33.289Z,97913.12
2018-10-03T18:47:00.727Z,97917.32
2018-10-03T18:49:28.176Z,97910.98
2018-10-03T18:51:55.920Z,97910.38
2018-10-03T18:54:23.456Z,97917.02
2018-10-03T18:56:50.888Z,97917.62
2018-10-03T18:59:18.428Z,97914.09
2018-10-03T19:01:45.889Z,97919.81
2018-10-03T19:04:13.414Z,97929.63
2018-10-03T19:06:40.874Z,97924.27
2018-10-03T19:09:08.390Z,97916.91
2018-10-03T19:11:36.088Z,97921.45
2018-10-03T19:14:05.484Z,97916.38
2018-10-03T19:16:33.162Z,97914.40
2018-10-03T19:19:00.778Z,97907.11
2018-10-03T19:21:28.214Z,97914.46
2018-10-03T19:23:55.704Z,97918.88
2018-10-03T19:26:23.493Z,97915.45
2018-10-03T19:28:50.812Z,97909.72
2018-10-03T19:31:18.276Z,97921.48
2018-10-03T19:33:45.756Z,97915.98
2018-10-03T19:36:13.224Z,97923.70
2018-10-03T19:38:40.658Z,97914.84
2018-10-03T19:41:08.141Z,97911.38
2018-10-03T19:43:35.548Z,97913.78
2018-10-03T19:46:03.012Z,97910.02
2018-10-03T19:48:30.552Z,97907.16
2018-10-03T19:50:57.992Z,97917.49
2018-10-03T19:53:25.436Z,97917.49
2018-10-03T19:55:53.647Z,97918.30
2018-10-03T19:58:21.104Z,97925.39
2018-10-03T20:00:48.535Z,97924.00
2018-10-03T20:03:16.115Z,97927.63
2018-10-03T20:05:43.642Z,97928.09
2018-10-03T20:08:11.125Z,97928.23
2018-10-03T20:10:38.621Z,97930.61
2018-10-03T20:13:06.127Z,97931.48
2018-10-03T20:15:33.708Z,97932.45
2018-10-03T20:18:01.175Z,97936.77
2018-10-03T20:20:29.069Z,97929.48
2018-10-03T20:22:56.574Z,97937.45
2018-10-03T20:25:24.150Z,97932.43
2018-10-03T20:27:51.652Z,97930.69
2018-10-03T20:30:19.040Z,97932.59
2018-10-03T20:32:46.444Z,97928.03
2018-10-03T20:35:14.017Z,97920.75
2018-10-03T20:37:41.457Z,97921.77
2018-10-03T20:40:08.928Z,97922.57
2018-10-03T20:42:36.372Z,97923.27
2018-10-03T20:45:03.788Z,97916.83
2018-10-03T20:47:31.197Z,97922.47
2018-10-03T20:49:58.660Z,97920.07
2018-10-03T20:52:26.215Z,97918.16
2018-10-03T20:54:53.828Z,97925.61
2018-10-03T20:57:21.362Z,97921.22
2018-10-03T20:59:48.806Z,97917.38
2018-10-03T21:02:16.242Z,97928.58
2018-10-03T21:04:43.680Z,97931.50
2018-10-03T21:07:11.204Z,97918.19
2018-10-03T21:09:38.680Z,97927.91
2018-10-03T21:12:06.087Z,97923.73
2018-10-03T21:14:33.544Z,97928.96
2018-10-03T21:17:00.992Z,97920.49
2018-10-03T21:19:28.411Z,97918.30
2018-10-03T21:21:55.894Z,97917.32
2018-10-03T21:24:24.263Z,97913.24
2018-10-03T21:26:51.700Z,97922.02
2018-10-03T21:29:19.715Z,97922.09
2018-10-03T21:31:47.199Z,97915.47
2018-10-03T21:34:14.873Z,97917.35
2018-10-03T21:36:42.355Z,97910.63
2018-10-03T21:39:09.805Z,97916.80
2018-10-03T21:41:37.235Z,97916.34
2018-10-03T21:44:04.730Z,97912.10
2018-10-03T21:46:32.207Z,97912.44
2018-10-03T21:48:59.708Z,97915.52
2018-10-03T21:51:27.375Z,97921.48
2018-10-03T21:53:54.851Z,97924.38
2018-10-03T21:56:22.296Z,97926.80
2018-10-03T21:58:49.715Z,97918.17
2018-10-03T22:01:17.157Z,97921.47
2018-10-03T22:03:45.191Z,97916.45
2018-10-03T22:06:12.593Z,97926.59
2018-10-03T22:08:40.024Z,97926.93
2018-10-03T22:11:07.531Z,97923.83
2018-10-03T22:13:35.178Z,97923.83
2018-10-03T22:16:02.652Z,97919.25
2018-10-03T22:18:30.955Z,97917.64
2018-10-03T22:20:58.457Z,97914.20
2018-10-03T22:23:25.909Z,97910.07
2018-10-03T22:25:53.630Z,97908.46
2018-10-03T22:28:21.133Z,97910.39
2018-10-03T22:30:48.627Z,97909.06
2018-10-03T22:33:16.064Z,97907.84
2018-10-03T22:35:43.612Z,97903.00
2018-10-03T22:38:11.071Z,97902.30
2018-10-03T22:40:38.554Z,97903.12
2018-10-03T22:43:06.047Z,97909.48
2018-10-03T22:45:33.999Z,97903.59
2018-10-03T22:48:01.466Z,97906.56
2018-10-03T22:50:29.003Z,97896.09
2018-10-03T22:52:57.323Z,97897.70
2018-10-03T22:55:24.777Z,97900.35
2018-10-03T22:57:52.232Z,97901.09
2018-10-03T23:00:19.696Z,97896.04
2018-10-03T23:02:47.162Z,97897.72
2018-10-03T23:05:14.918Z,97898.33
2018-10-03T23:07:43.089Z,97896.69
2018-10-03T23:10:10.568Z,97886.77
2018-10-03T23:12:41.717Z,97897.17
2018-10-03T23:15:09.133Z,97888.09
2018-10-03T23:17:36.593Z,97897.81
2018-10-03T23:20:04.048Z,97885.83
2018-10-03T23:22:31.608Z,97891.12
2018-10-03T23:24:59.039Z,97894.17
2018-10-03T23:27:26.491Z,97892.17
2018-10-03T23:29:54.034Z,97891.37
2018-10-03T23:32:21.519Z,97893.50
2018-10-03T23:34:48.958Z,97894.43
2018-10-03T23:37:16.419Z,97892.20
2018-10-03T23:39:43.865Z,97899.27
2018-10-03T23:42:11.313Z,97895.04
2018-10-03T23:44:38.842Z,97897.03
2018-10-03T23:47:06.316Z,97897.52
2018-10-03T23:49:33.778Z,97901.41
2018-10-03T23:52:01.253Z,97901.48
2018-10-03T23:54:29.934Z,97900.13
2018-10-03T23:56:57.335Z,97896.91
2018-10-03T23:59:24.755Z,97902.42
